.
WxDataArchive / Data Records for 2010-01-10
2010-01-09 January 2010 2010-01-11

Data Records for Sunday, 10 January 2010

Time	Temp	Chill	HIndex	Humid	Dewpt	 Wind 	HiWind	WindDir	Rain 	Barom 
-----	----	-----	------	-----	-----	------	------	-------	-----	----- 
00:00	4.3	4.3	4.3	83	0.3	0	0	---	0.00	30.526 
00:05	4.1	4.1	4.1	83	0.1	0	0	---	0.00	30.526 
00:10	3.9	3.9	3.9	83	-0.1	0	0	---	0.00	30.526 
00:15	3.7	3.7	3.7	83	-0.3	0	0	---	0.00	30.524 
00:20	3.5	3.5	3.5	83	-0.5	0	0	---	0.00	30.524 
00:25	3.5	3.5	3.5	83	-0.5	0	0	---	0.00	30.524 
00:30	3.4	3.4	3.4	83	-0.6	0	0	---	0.00	30.522 
00:35	3.7	3.7	3.7	83	-0.3	0	1	90	0.00	30.522 
00:40	3.9	3.9	3.9	84	0.2	0	0	---	0.00	30.522 
00:45	4.3	4.3	4.3	84	0.6	0	0	---	0.00	30.523 
00:50	4.5	4.5	4.5	84	0.8	0	0	---	0.00	30.523 
00:55	4.7	4.7	4.7	84	1.0	0	1	90	0.00	30.523 
01:00	4.8	4.8	4.8	84	1.0	0	0	---	0.00	30.519 
01:05	4.8	4.8	4.8	84	1.0	0	0	---	0.00	30.519 
01:10	5.0	5.0	5.0	84	1.2	0	0	---	0.00	30.519 
01:15	5.4	5.4	5.4	84	1.6	0	0	---	0.00	30.517 
01:20	6.0	6.0	6.0	85	2.5	0	0	---	0.00	30.517 
01:25	6.1	6.1	6.1	85	2.6	0	0	---	0.00	30.517 
01:30	6.7	6.7	6.7	85	3.2	0	0	---	0.00	30.507 
01:35	7.0	7.0	7.0	85	3.5	0	0	---	0.00	30.507 
01:40	7.6	7.6	7.6	86	4.3	0	0	---	0.00	30.507 
01:45	8.1	8.1	8.1	86	4.8	0	0	---	0.00	30.507 
01:50	8.6	8.6	8.6	86	5.3	0	0	---	0.00	30.507 
01:55	9.2	9.2	9.2	86	5.9	0	0	---	0.00	30.507 
02:00	9.5	9.5	9.5	87	6.4	0	0	---	0.00	30.503 
02:05	9.9	9.9	9.9	87	6.8	0	1	90	0.00	30.503 
02:10	10.2	10.2	10.2	87	7.1	0	1	90	0.00	30.503 
02:15	10.5	10.5	10.5	87	7.4	0	1	90	0.00	30.502 
02:20	10.7	10.7	10.7	87	7.6	0	0	---	0.00	30.502 
02:25	10.9	10.9	10.9	87	7.8	0	0	---	0.00	30.502 
02:30	11.2	11.2	11.2	87	8.1	0	1	90	0.00	30.502 
02:35	11.6	11.6	11.6	87	8.5	0	1	90	0.00	30.502 
02:40	11.9	11.9	11.9	87	8.8	0	0	---	0.00	30.502 
02:45	12.4	12.4	12.4	87	9.3	0	1	90	0.00	30.503 
02:50	12.6	12.6	12.6	87	9.5	0	1	68	0.00	30.503 
02:55	12.8	12.8	12.8	87	9.7	0	1	90	0.00	30.503 
03:00	13.1	13.1	13.1	87	10.0	0	1	90	0.00	30.502 
03:05	13.3	13.3	13.3	87	10.2	0	2	90	0.00	30.502 
03:10	13.5	13.5	13.5	87	10.4	0	1	90	0.00	30.502 
03:15	13.5	13.5	13.5	87	10.4	0	1	90	0.00	30.503 
03:20	13.6	13.6	13.6	87	10.5	0	3	90	0.00	30.503 
03:25	13.6	13.6	13.6	87	10.5	0	1	90	0.00	30.503 
03:30	13.8	13.8	13.8	87	10.7	0	1	90	0.00	30.505 
03:35	14.0	14.0	14.0	87	10.9	0	2	90	0.00	30.505 
03:40	14.1	14.1	14.1	87	11.0	0	1	90	0.00	30.505 
03:45	14.1	14.1	14.1	87	11.0	0	1	90	0.00	30.500 
03:50	14.3	14.3	14.3	87	11.2	0	1	90	0.00	30.500 
03:55	14.3	14.3	14.3	87	11.2	0	1	90	0.00	30.500 
04:00	14.4	14.4	14.4	87	11.3	0	2	90	0.00	30.503 
04:05	14.4	14.4	14.4	87	11.3	0	1	90	0.00	30.503 
04:10	14.6	14.6	14.6	87	11.4	0	2	90	0.00	30.503 
04:15	14.6	14.6	14.6	87	11.4	0	1	90	0.00	30.500 
04:20	14.6	14.6	14.6	87	11.4	0	1	90	0.00	30.500 
04:25	14.8	14.8	14.8	87	11.6	0	1	90	0.00	30.500 
04:30	14.8	14.8	14.8	87	11.6	0	2	90	0.00	30.498 
04:35	14.8	14.8	14.8	87	11.6	0	2	90	0.00	30.498 
04:40	14.8	14.8	14.8	87	11.6	0	1	90	0.00	30.498 
04:45	14.8	14.8	14.8	87	11.6	0	2	90	0.00	30.496 
04:50	14.8	14.8	14.8	87	11.6	0	2	270	0.00	30.496 
04:55	14.8	14.8	14.8	87	11.6	0	1	270	0.00	30.496 
05:00	14.8	14.8	14.8	87	11.6	0	1	270	0.00	30.496 
05:05	14.8	14.8	14.8	87	11.6	0	1	270	0.00	30.496 
05:10	14.9	14.9	14.9	87	11.7	0	2	270	0.00	30.496 
05:15	14.9	14.9	14.9	87	11.7	0	1	270	0.00	30.504 
05:20	14.9	14.9	14.9	87	11.7	0	2	270	0.00	30.504 
05:25	14.9	14.9	14.9	87	11.7	0	1	270	0.00	30.504 
05:30	14.9	14.9	14.9	87	11.7	0	1	270	0.00	30.505 
05:35	14.9	14.9	14.9	87	11.7	0	1	270	0.00	30.505 
05:40	15.1	15.1	15.1	87	11.9	0	1	270	0.00	30.505 
05:45	15.1	15.1	15.1	87	11.9	0	1	270	0.00	30.505 
05:50	15.1	15.1	15.1	87	11.9	0	1	270	0.00	30.505 
05:55	15.2	15.2	15.2	87	12.0	0	1	270	0.00	30.505 
06:00	15.2	15.2	15.2	87	12.0	0	2	270	0.00	30.508 
06:05	15.2	15.2	15.2	87	12.0	0	1	270	0.00	30.508 
06:10	15.4	15.4	15.4	87	12.2	0	2	270	0.00	30.508 
06:15	15.4	15.4	15.4	87	12.2	0	2	270	0.00	30.513 
06:20	15.4	15.4	15.4	87	12.2	0	2	270	0.00	30.513 
06:25	15.6	15.6	15.6	87	12.4	0	1	270	0.00	30.513 
06:30	15.6	15.6	15.6	87	12.4	1	3	270	0.00	30.517 
06:35	15.6	15.6	15.6	87	12.4	0	3	270	0.00	30.517 
06:40	15.6	15.6	15.6	87	12.4	1	3	270	0.00	30.517 
06:45	15.6	15.6	15.6	86	12.2	1	2	270	0.00	30.524 
06:50	15.6	15.6	15.6	86	12.2	0	2	270	0.00	30.524 
06:55	15.6	15.6	15.6	86	12.2	1	3	270	0.00	30.524 
07:00	15.7	15.7	15.7	86	12.3	0	2	270	0.00	30.527 
07:05	15.7	15.7	15.7	86	12.3	0	2	270	0.00	30.527 
07:10	15.7	15.7	15.7	86	12.3	0	1	270	0.00	30.527 
07:15	15.7	15.7	15.7	86	12.3	1	3	248	0.00	30.533 
07:20	15.9	15.9	15.9	85	12.2	0	2	248	0.00	30.533 
07:25	15.9	15.9	15.9	85	12.2	0	2	248	0.00	30.533 
07:30	15.9	15.9	15.9	85	12.2	0	2	248	0.00	30.532 
07:35	15.9	15.9	15.9	85	12.2	0	2	248	0.00	30.532 
07:40	15.9	15.9	15.9	85	12.2	0	2	248	0.00	30.532 
07:45	15.9	15.9	15.9	85	12.2	0	2	248	0.00	30.533 
07:50	15.9	15.9	15.9	85	12.2	1	4	248	0.00	30.533 
07:55	16.1	16.1	16.1	85	12.4	0	2	248	0.00	30.533 
08:00	16.1	16.1	16.1	84	12.1	1	3	248	0.00	30.534 
08:05	16.1	16.1	16.1	84	12.1	1	5	292	0.00	30.534 
08:10	16.1	16.1	16.1	84	12.1	1	2	225	0.00	30.534 
08:15	16.2	16.2	16.2	84	12.2	0	2	225	0.00	30.535 
08:20	16.2	16.2	16.2	84	12.2	0	3	225	0.00	30.535 
08:25	16.4	16.4	16.4	84	12.4	1	3	248	0.00	30.535 
08:30	16.4	16.4	16.4	84	12.4	1	3	248	0.00	30.536 
08:35	16.5	16.5	16.5	84	12.5	0	2	248	0.00	30.536 
08:40	16.5	16.5	16.5	84	12.5	1	3	248	0.00	30.536 
08:45	16.5	16.5	16.5	84	12.5	1	2	248	0.00	30.534 
08:50	16.5	16.5	16.5	83	12.3	1	4	248	0.00	30.534 
08:55	16.5	16.5	16.5	83	12.3	1	3	248	0.00	30.534 
09:00	16.5	16.5	16.5	83	12.3	1	5	248	0.00	30.536 
09:05	16.5	16.5	16.5	83	12.3	1	4	270	0.00	30.536 
09:10	16.5	16.5	16.5	82	12.0	1	5	248	0.00	30.536 
09:15	16.7	16.7	16.7	82	12.2	2	5	248	0.00	30.538 
09:20	16.7	16.7	16.7	82	12.2	1	4	248	0.00	30.538 
09:25	17.0	17.0	17.0	82	12.5	1	4	248	0.00	30.538 
09:30	17.0	17.0	17.0	81	12.2	2	4	248	0.00	30.540 
09:35	17.0	17.0	17.0	81	12.2	2	5	248	0.00	30.540 
09:40	17.0	17.0	17.0	81	12.2	1	7	248	0.00	30.540 
09:45	17.2	17.2	17.2	80	12.1	1	3	248	0.00	30.541 
09:50	17.2	17.2	17.2	79	11.8	2	4	248	0.00	30.541 
09:55	17.2	17.2	17.2	79	11.8	2	6	248	0.00	30.541 
10:00	17.3	17.3	17.3	79	11.9	1	5	248	0.00	30.541 
10:05	17.5	17.5	17.5	78	11.8	1	4	248	0.00	30.541 
10:10	17.3	17.3	17.3	76	11.1	2	4	248	0.00	30.541 
10:15	17.5	17.5	17.5	76	11.3	2	4	270	0.00	30.540 
10:20	17.7	17.7	17.7	75	11.1	2	5	270	0.00	30.540 
10:25	17.8	17.8	17.8	73	10.6	2	3	225	0.00	30.540 
10:30	18.1	18.1	18.1	73	10.9	1	5	225	0.00	30.537 
10:35	18.1	18.1	18.1	71	10.3	2	4	270	0.00	30.537 
10:40	18.3	18.3	18.3	70	10.2	2	4	270	0.00	30.537 
10:45	18.6	18.6	18.6	70	10.5	1	4	225	0.00	30.535 
10:50	18.6	18.6	18.6	69	10.2	3	9	248	0.00	30.535 
10:55	18.8	18.8	18.8	68	10.0	2	7	292	0.00	30.535 
11:00	19.1	19.1	19.1	68	10.3	1	3	248	0.00	30.529 
11:05	19.1	19.1	19.1	66	9.6	2	5	270	0.00	30.529 
11:10	19.2	19.2	19.2	66	9.7	2	5	270	0.00	30.529 
11:15	19.2	19.2	19.2	66	9.7	2	5	270	0.00	30.529 
11:20	19.5	19.5	19.5	66	10.0	2	4	270	0.00	30.529 
11:25	19.9	19.9	19.9	64	9.7	2	3	248	0.00	30.529 
11:30	19.9	19.9	19.9	64	9.7	2	5	248	0.00	30.523 
11:35	20.0	20.0	20.0	63	9.5	1	4	225	0.00	30.523 
11:40	20.0	20.0	20.0	63	9.5	2	5	248	0.00	30.523 
11:45	19.9	19.9	19.9	62	9.0	2	4	248	0.00	30.520 
11:50	19.4	19.4	19.4	61	8.2	2	3	248	0.00	30.520 
11:55	19.4	19.4	19.4	61	8.2	2	4	248	0.00	30.520 
12:00	19.7	19.7	19.7	61	8.5	2	5	270	0.00	30.517 
12:05	19.9	19.9	19.9	61	8.7	2	4	248	0.00	30.517 
12:10	20.0	20.0	20.0	61	8.7	2	5	270	0.00	30.517 
12:15	20.2	20.2	20.2	60	8.6	2	4	270	0.00	30.513 
12:20	20.0	20.0	20.0	59	8.0	2	4	270	0.00	30.513 
12:25	19.5	19.5	19.5	60	7.9	2	4	270	0.00	30.513 
12:30	19.5	19.5	19.5	58	7.2	2	3	270	0.00	30.504 
12:35	19.5	19.5	19.5	58	7.2	2	4	270	0.00	30.504 
12:40	19.5	19.5	19.5	58	7.2	2	4	270	0.00	30.504 
12:45	19.5	19.5	19.5	58	7.2	1	4	248	0.00	30.496 
12:50	19.4	19.4	19.4	57	6.7	2	3	248	0.00	30.496 
12:55	19.4	19.4	19.4	57	6.7	2	3	270	0.00	30.496 
13:00	19.2	19.2	19.2	56	6.1	2	3	270	0.00	30.488 
13:05	19.4	19.4	19.4	57	6.7	1	4	248	0.00	30.488 
13:10	19.4	19.4	19.4	55	5.9	2	5	292	0.00	30.488 
13:15	19.2	19.2	19.2	55	5.7	3	7	248	0.00	30.477 
13:20	19.2	19.2	19.2	55	5.7	2	5	270	0.00	30.477 
13:25	19.2	19.2	19.2	55	5.7	2	6	248	0.00	30.477 
13:30	19.2	19.2	19.2	54	5.3	2	6	270	0.00	30.471 
13:35	19.2	19.2	19.2	54	5.3	3	9	270	0.00	30.471 
13:40	19.2	19.2	19.2	54	5.3	2	5	270	0.00	30.471 
13:45	19.5	19.5	19.5	53	5.2	2	4	248	0.00	30.466 
13:50	19.5	19.5	19.5	53	5.2	3	8	248	0.00	30.466 
13:55	19.5	19.5	19.5	53	5.2	2	4	270	0.00	30.466 
14:00	19.7	19.7	19.7	52	5.0	3	6	270	0.00	30.460 
14:05	19.5	13.6	19.5	51	4.4	4	9	270	0.00	30.460 
14:10	19.4	13.5	19.4	50	3.8	4	10	270	0.00	30.460 
14:15	19.2	19.2	19.2	50	3.6	3	9	270	0.00	30.451 
14:20	19.4	19.4	19.4	51	4.3	2	6	248	0.00	30.451 
14:25	19.4	13.5	19.4	50	3.8	4	9	270	0.00	30.451 
14:30	19.4	19.4	19.4	50	3.8	3	9	248	0.00	30.451 
14:35	19.4	19.4	19.4	50	3.8	3	7	270	0.00	30.451 
14:40	19.1	13.2	19.1	50	3.6	4	11	270	0.00	30.451 
14:45	18.9	18.9	18.9	51	3.8	3	6	270	0.00	30.449 
14:50	18.8	12.8	18.8	51	3.7	4	9	270	0.00	30.449 
14:55	18.6	18.6	18.6	51	3.5	3	10	270	0.00	30.449 
15:00	18.8	18.8	18.8	52	4.1	3	7	270	0.00	30.448 
15:05	18.9	18.9	18.9	52	4.2	3	9	248	0.00	30.448 
15:10	19.1	19.1	19.1	53	4.8	2	6	248	0.00	30.448 
15:15	19.2	19.2	19.2	53	4.9	2	5	225	0.00	30.442 
15:20	19.4	19.4	19.4	52	4.7	2	5	225	0.00	30.442 
15:25	19.2	19.2	19.2	52	4.5	2	5	248	0.00	30.442 
15:30	19.2	19.2	19.2	53	4.9	2	5	248	0.00	30.436 
15:35	19.2	19.2	19.2	53	4.9	2	5	248	0.00	30.436 
15:40	19.2	19.2	19.2	53	4.9	1	7	248	0.00	30.436 
15:45	18.9	18.9	18.9	53	4.6	2	6	248	0.00	30.433 
15:50	18.6	18.6	18.6	53	4.3	3	9	270	0.00	30.433 
15:55	18.6	18.6	18.6	54	4.8	2	4	248	0.00	30.433 
16:00	18.9	18.9	18.9	54	5.0	1	6	225	0.00	30.429 
16:05	18.8	18.8	18.8	54	4.9	3	6	248	0.00	30.429 
16:10	18.4	18.4	18.4	54	4.6	3	7	248	0.00	30.429 
16:15	18.3	18.3	18.3	55	4.9	2	4	248	0.00	30.428 
16:20	18.1	18.1	18.1	56	5.1	2	7	248	0.00	30.428 
16:25	18.1	18.1	18.1	56	5.1	3	7	248	0.00	30.428 
16:30	18.1	18.1	18.1	57	5.5	2	7	248	0.00	30.419 
16:35	18.1	18.1	18.1	57	5.5	3	9	248	0.00	30.419 
16:40	18.0	18.0	18.0	57	5.4	3	7	248	0.00	30.419 
16:45	18.0	18.0	18.0	58	5.7	1	5	248	0.00	30.417 
16:50	17.7	17.7	17.7	57	5.1	2	5	248	0.00	30.417 
16:55	17.3	17.3	17.3	58	5.1	2	5	248	0.00	30.417 
17:00	17.0	17.0	17.0	57	4.4	2	7	270	0.00	30.415 
17:05	16.5	16.5	16.5	58	4.3	2	9	248	0.00	30.415 
17:10	16.2	16.2	16.2	58	4.1	2	6	248	0.00	30.415 
17:15	15.9	15.9	15.9	58	3.8	3	9	248	0.00	30.419 
17:20	15.6	15.6	15.6	58	3.5	2	5	248	0.00	30.419 
17:25	15.2	15.2	15.2	58	3.1	2	7	248	0.00	30.419 
17:30	15.1	15.1	15.1	59	3.4	1	6	248	0.00	30.418 
17:35	14.8	14.8	14.8	58	2.7	1	6	248	0.00	30.418 
17:40	14.6	14.6	14.6	59	2.9	2	7	248	0.00	30.418 
17:45	14.4	14.4	14.4	58	2.4	2	6	248	0.00	30.414 
17:50	14.3	14.3	14.3	58	2.3	1	5	248	0.00	30.414 
17:55	14.0	14.0	14.0	59	2.3	1	5	248	0.00	30.414 
18:00	13.8	13.8	13.8	61	2.9	2	5	225	0.00	30.412 
18:05	13.6	13.6	13.6	62	3.0	1	5	248	0.00	30.412 
18:10	13.5	13.5	13.5	62	2.9	2	4	248	0.00	30.412 
18:15	13.1	13.1	13.1	63	2.9	0	3	248	0.00	30.409 
18:20	12.9	12.9	12.9	64	3.1	1	4	248	0.00	30.409 
18:25	12.8	12.8	12.8	65	3.3	1	3	248	0.00	30.409 
18:30	12.6	12.6	12.6	66	3.4	1	6	248	0.00	30.411 
18:35	12.4	12.4	12.4	66	3.2	1	4	248	0.00	30.411 
18:40	12.3	12.3	12.3	67	3.5	1	4	248	0.00	30.411 
18:45	12.1	12.1	12.1	67	3.3	1	4	248	0.00	30.405 
18:50	12.1	12.1	12.1	67	3.3	2	6	248	0.00	30.405 
18:55	11.9	11.9	11.9	67	3.1	1	4	248	0.00	30.405 
19:00	11.9	11.9	11.9	67	3.1	1	3	248	0.00	30.402 
19:05	11.9	11.9	11.9	67	3.1	1	5	248	0.00	30.402 
19:10	11.9	11.9	11.9	67	3.1	2	5	270	0.00	30.402 
19:15	12.1	12.1	12.1	67	3.3	1	5	248	0.00	30.391 
19:20	12.1	12.1	12.1	67	3.3	2	5	248	0.00	30.391 
19:25	12.3	12.3	12.3	67	3.5	2	5	248	0.00	30.391 
19:30	12.4	12.4	12.4	67	3.6	1	4	225	0.00	30.390 
19:35	12.4	12.4	12.4	67	3.6	2	5	248	0.00	30.390 
19:40	12.6	12.6	12.6	67	3.8	1	4	248	0.00	30.390 
19:45	12.4	12.4	12.4	67	3.6	2	6	248	0.00	30.382 
19:50	12.6	12.6	12.6	67	3.8	1	4	248	0.00	30.382 
19:55	12.4	12.4	12.4	67	3.6	1	5	225	0.00	30.382 
20:00	12.3	12.3	12.3	67	3.5	1	6	248	0.00	30.376 
20:05	12.1	12.1	12.1	67	3.3	2	5	225	0.00	30.376 
20:10	12.1	12.1	12.1	67	3.3	1	3	248	0.00	30.376 
20:15	11.9	11.9	11.9	68	3.4	1	4	248	0.00	30.373 
20:20	11.9	11.9	11.9	68	3.4	2	5	248	0.00	30.373 
20:25	11.7	11.7	11.7	68	3.2	1	4	248	0.00	30.373 
20:30	11.6	11.6	11.6	68	3.1	1	4	248	0.00	30.368 
20:35	11.6	11.6	11.6	68	3.1	1	5	248	0.00	30.368 
20:40	11.6	11.6	11.6	69	3.4	1	3	248	0.00	30.368 
20:45	11.6	11.6	11.6	69	3.4	1	5	248	0.00	30.354 
20:50	11.6	11.6	11.6	69	3.4	1	3	248	0.00	30.354 
20:55	11.6	11.6	11.6	69	3.4	0	2	202	0.00	30.354 
21:00	11.4	11.4	11.4	69	3.2	1	3	248	0.00	30.347 
21:05	11.2	11.2	11.2	69	3.0	0	2	248	0.00	30.347 
21:10	11.1	11.1	11.1	69	3.0	0	1	248	0.00	30.347 
21:15	10.9	10.9	10.9	69	2.8	0	1	248	0.00	30.338 
21:20	10.5	10.5	10.5	69	2.4	0	1	248	0.00	30.338 
21:25	10.4	10.4	10.4	70	2.6	0	1	248	0.00	30.338 
21:30	10.2	10.2	10.2	70	2.4	0	2	248	0.00	30.329 
21:35	10.2	10.2	10.2	71	2.7	0	2	248	0.00	30.329 
21:40	10.2	10.2	10.2	71	2.7	0	3	248	0.00	30.329 
21:45	10.2	10.2	10.2	71	2.7	0	2	248	0.00	30.328 
21:50	10.2	10.2	10.2	72	3.0	0	2	248	0.00	30.328 
21:55	10.2	10.2	10.2	72	3.0	0	2	248	0.00	30.328 
22:00	10.4	10.4	10.4	72	3.2	0	2	248	0.00	30.318 
22:05	10.7	10.7	10.7	73	3.8	1	4	248	0.00	30.318 
22:10	11.2	11.2	11.2	73	4.3	2	4	248	0.00	30.318 
22:15	11.7	11.7	11.7	72	4.4	2	6	248	0.00	30.308 
22:20	11.9	11.9	11.9	71	4.3	1	4	248	0.00	30.308 
22:25	12.3	12.3	12.3	71	4.7	1	4	248	0.00	30.308 
22:30	12.6	12.6	12.6	71	5.0	2	6	248	0.00	30.303 
22:35	12.9	12.9	12.9	70	5.0	2	6	248	0.00	30.303 
22:40	13.1	13.1	13.1	70	5.2	1	3	248	0.00	30.303 
22:45	13.5	13.5	13.5	69	5.3	2	9	248	0.00	30.294 
22:50	13.6	13.6	13.6	69	5.4	2	6	248	0.00	30.294 
22:55	13.8	13.8	13.8	69	5.5	2	6	248	0.00	30.294 
23:00	14.0	14.0	14.0	69	5.7	2	7	225	0.00	30.291 
23:05	14.1	14.1	14.1	68	5.5	1	4	248	0.00	30.291 
23:10	14.3	14.3	14.3	68	5.7	2	11	248	0.00	30.291 
23:15	14.4	14.4	14.4	68	5.8	3	9	248	0.00	30.285 
23:20	14.6	14.6	14.6	67	5.7	3	10	248	0.00	30.285 
23:25	14.8	14.8	14.8	67	5.9	2	7	248	0.00	30.285 
23:30	14.9	14.9	14.9	66	5.6	3	7	270	0.00	30.276 
23:35	14.9	14.9	14.9	66	5.6	3	10	248	0.00	30.276 
23:40	15.1	15.1	15.1	66	5.8	2	6	248	0.00	30.276 
23:45	15.1	15.1	15.1	66	5.8	2	7	248	0.00	30.272 
23:50	15.2	15.2	15.2	65	5.6	2	5	270	0.00	30.272 
23:55	15.2	15.2	15.2	65	5.6	2	7	225	0.00	30.272 

CoCoRaHS
IN-AL-39
A2 Web Hosting
Creative Commons License
GoDaddy
search engine by freefind advanced

loaded 2018-11-17 18:38:33 • last modified 2010-11-18 10:43:29
Privacy PolicyDisclaimer
• wx.awcolley.com is powered by PmWiki v.2002016 •
• all content (unless otherwise noted) © 2018 A W Colley